sensor_id;sensor_type;location;lat;lon;timestamp;P1;durP1;ratioP1;P2;durP2;ratioP2
18748;SDS011;9503;53.560;10.246;2023-08-31T00:02:17;27.07;;;17.77;;
18748;SDS011;9503;53.560;10.246;2023-08-31T00:04:44;24.03;;;16.30;;
18748;SDS011;9503;53.560;10.246;2023-08-31T00:07:11;22.98;;;16.27;;
18748;SDS011;9503;53.560;10.246;2023-08-31T00:09:37;25.07;;;16.97;;
18748;SDS011;9503;53.560;10.246;2023-08-31T00:12:06;27.60;;;17.88;;
18748;SDS011;9503;53.560;10.246;2023-08-31T00:14:33;24.85;;;16.48;;
18748;SDS011;9503;53.560;10.246;2023-08-31T00:16:59;25.97;;;16.73;;
18748;SDS011;9503;53.560;10.246;2023-08-31T00:19:26;24.35;;;15.52;;
18748;SDS011;9503;53.560;10.246;2023-08-31T00:21:52;24.85;;;17.63;;
18748;SDS011;9503;53.560;10.246;2023-08-31T00:24:19;25.63;;;16.20;;
18748;SDS011;9503;53.560;10.246;2023-08-31T00:26:47;27.23;;;17.47;;
18748;SDS011;9503;53.560;10.246;2023-08-31T00:29:17;25.47;;;17.10;;
18748;SDS011;9503;53.560;10.246;2023-08-31T00:31:45;26.90;;;16.03;;
18748;SDS011;9503;53.560;10.246;2023-08-31T00:34:13;26.03;;;16.30;;
18748;SDS011;9503;53.560;10.246;2023-08-31T00:36:40;23.97;;;16.53;;
18748;SDS011;9503;53.560;10.246;2023-08-31T00:39:06;26.30;;;17.37;;
18748;SDS011;9503;53.560;10.246;2023-08-31T00:41:35;25.53;;;15.97;;
18748;SDS011;9503;53.560;10.246;2023-08-31T00:44:02;25.53;;;17.00;;
18748;SDS011;9503;53.560;10.246;2023-08-31T00:46:31;25.93;;;15.10;;
18748;SDS011;9503;53.560;10.246;2023-08-31T00:48:58;21.40;;;14.20;;
18748;SDS011;9503;53.560;10.246;2023-08-31T00:51:25;23.00;;;14.47;;
18748;SDS011;9503;53.560;10.246;2023-08-31T00:53:52;22.17;;;14.13;;
18748;SDS011;9503;53.560;10.246;2023-08-31T00:56:19;23.40;;;14.50;;
18748;SDS011;9503;53.560;10.246;2023-08-31T00:58:46;21.40;;;14.07;;
18748;SDS011;9503;53.560;10.246;2023-08-31T01:01:15;20.40;;;13.03;;
18748;SDS011;9503;53.560;10.246;2023-08-31T01:03:50;22.93;;;13.17;;
18748;SDS011;9503;53.560;10.246;2023-08-31T01:06:26;20.40;;;13.20;;
18748;SDS011;9503;53.560;10.246;2023-08-31T01:09:10;19.77;;;12.10;;
18748;SDS011;9503;53.560;10.246;2023-08-31T01:11:45;18.57;;;12.33;;
18748;SDS011;9503;53.560;10.246;2023-08-31T01:14:23;20.03;;;12.03;;
18748;SDS011;9503;53.560;10.246;2023-08-31T01:16:51;19.13;;;11.63;;
18748;SDS011;9503;53.560;10.246;2023-08-31T01:19:27;20.67;;;13.13;;
18748;SDS011;9503;53.560;10.246;2023-08-31T01:22:09;20.73;;;12.53;;
18748;SDS011;9503;53.560;10.246;2023-08-31T01:24:41;19.97;;;11.90;;
18748;SDS011;9503;53.560;10.246;2023-08-31T01:27:07;22.23;;;13.03;;
18748;SDS011;9503;53.560;10.246;2023-08-31T01:29:34;19.37;;;12.40;;
18748;SDS011;9503;53.560;10.246;2023-08-31T01:32:04;18.80;;;11.73;;
18748;SDS011;9503;53.560;10.246;2023-08-31T01:34:32;19.37;;;12.23;;
18748;SDS011;9503;53.560;10.246;2023-08-31T01:36:58;22.47;;;12.50;;
18748;SDS011;9503;53.560;10.246;2023-08-31T01:39:32;21.03;;;13.10;;
18748;SDS011;9503;53.560;10.246;2023-08-31T01:42:05;18.97;;;11.63;;
18748;SDS011;9503;53.560;10.246;2023-08-31T01:44:32;20.63;;;12.83;;
18748;SDS011;9503;53.560;10.246;2023-08-31T01:47:03;21.77;;;12.07;;
18748;SDS011;9503;53.560;10.246;2023-08-31T01:49:35;20.23;;;12.63;;
18748;SDS011;9503;53.560;10.246;2023-08-31T01:52:03;19.37;;;11.87;;
18748;SDS011;9503;53.560;10.246;2023-08-31T01:54:30;20.30;;;11.70;;
18748;SDS011;9503;53.560;10.246;2023-08-31T01:56:57;18.23;;;11.77;;
18748;SDS011;9503;53.560;10.246;2023-08-31T01:59:25;19.20;;;11.50;;
18748;SDS011;9503;53.560;10.246;2023-08-31T02:01:52;18.00;;;11.47;;
18748;SDS011;9503;53.560;10.246;2023-08-31T02:04:18;23.83;;;12.67;;
18748;SDS011;9503;53.560;10.246;2023-08-31T02:06:45;21.40;;;12.13;;
18748;SDS011;9503;53.560;10.246;2023-08-31T02:09:12;16.37;;;10.97;;
18748;SDS011;9503;53.560;10.246;2023-08-31T02:11:39;20.70;;;11.50;;
18748;SDS011;9503;53.560;10.246;2023-08-31T02:14:05;19.27;;;11.60;;
18748;SDS011;9503;53.560;10.246;2023-08-31T02:16:34;18.87;;;11.20;;
18748;SDS011;9503;53.560;10.246;2023-08-31T02:19:00;23.93;;;11.63;;
18748;SDS011;9503;53.560;10.246;2023-08-31T02:21:27;19.83;;;11.20;;
18748;SDS011;9503;53.560;10.246;2023-08-31T02:23:53;16.77;;;11.10;;
18748;SDS011;9503;53.560;10.246;2023-08-31T02:26:20;20.07;;;11.73;;
18748;SDS011;9503;53.560;10.246;2023-08-31T02:28:47;17.83;;;10.93;;
18748;SDS011;9503;53.560;10.246;2023-08-31T02:31:16;14.50;;;10.93;;
18748;SDS011;9503;53.560;10.246;2023-08-31T02:33:45;16.30;;;11.00;;
18748;SDS011;9503;53.560;10.246;2023-08-31T02:36:12;18.83;;;11.33;;
18748;SDS011;9503;53.560;10.246;2023-08-31T02:38:38;20.60;;;10.47;;
18748;SDS011;9503;53.560;10.246;2023-08-31T02:41:05;17.23;;;10.93;;
18748;SDS011;9503;53.560;10.246;2023-08-31T02:43:31;15.83;;;10.87;;
18748;SDS011;9503;53.560;10.246;2023-08-31T02:45:59;16.17;;;10.20;;
18748;SDS011;9503;53.560;10.246;2023-08-31T02:48:26;18.17;;;9.90;;
18748;SDS011;9503;53.560;10.246;2023-08-31T02:50:56;18.57;;;11.33;;
18748;SDS011;9503;53.560;10.246;2023-08-31T02:53:22;15.43;;;10.77;;
18748;SDS011;9503;53.560;10.246;2023-08-31T02:55:49;17.43;;;9.67;;
18748;SDS011;9503;53.560;10.246;2023-08-31T02:58:16;17.27;;;11.33;;
18748;SDS011;9503;53.560;10.246;2023-08-31T03:00:44;18.30;;;10.57;;
18748;SDS011;9503;53.560;10.246;2023-08-31T03:03:12;17.17;;;10.50;;
18748;SDS011;9503;53.560;10.246;2023-08-31T03:05:39;19.20;;;10.47;;
18748;SDS011;9503;53.560;10.246;2023-08-31T03:08:07;22.67;;;10.60;;
18748;SDS011;9503;53.560;10.246;2023-08-31T03:10:34;15.63;;;10.13;;
18748;SDS011;9503;53.560;10.246;2023-08-31T03:13:01;16.93;;;9.90;;
18748;SDS011;9503;53.560;10.246;2023-08-31T03:15:28;14.77;;;10.10;;
18748;SDS011;9503;53.560;10.246;2023-08-31T03:17:54;21.43;;;11.20;;
18748;SDS011;9503;53.560;10.246;2023-08-31T03:20:21;13.47;;;8.80;;
18748;SDS011;9503;53.560;10.246;2023-08-31T03:22:48;15.87;;;9.70;;
18748;SDS011;9503;53.560;10.246;2023-08-31T03:25:16;19.27;;;10.20;;
18748;SDS011;9503;53.560;10.246;2023-08-31T03:27:42;17.53;;;10.50;;
18748;SDS011;9503;53.560;10.246;2023-08-31T03:30:09;19.50;;;11.10;;
18748;SDS011;9503;53.560;10.246;2023-08-31T03:32:36;18.60;;;10.90;;
18748;SDS011;9503;53.560;10.246;2023-08-31T03:35:03;17.50;;;11.00;;
18748;SDS011;9503;53.560;10.246;2023-08-31T03:37:31;16.17;;;9.43;;
18748;SDS011;9503;53.560;10.246;2023-08-31T03:39:57;18.50;;;10.30;;
18748;SDS011;9503;53.560;10.246;2023-08-31T03:42:25;18.37;;;11.20;;
18748;SDS011;9503;53.560;10.246;2023-08-31T03:44:52;17.43;;;10.80;;
18748;SDS011;9503;53.560;10.246;2023-08-31T03:47:18;17.17;;;10.10;;
18748;SDS011;9503;53.560;10.246;2023-08-31T03:49:45;21.10;;;11.33;;
18748;SDS011;9503;53.560;10.246;2023-08-31T03:52:12;16.17;;;10.37;;
18748;SDS011;9503;53.560;10.246;2023-08-31T03:54:38;16.90;;;9.83;;
18748;SDS011;9503;53.560;10.246;2023-08-31T03:57:05;15.30;;;10.40;;
18748;SDS011;9503;53.560;10.246;2023-08-31T03:59:33;14.33;;;9.80;;
18748;SDS011;9503;53.560;10.246;2023-08-31T04:01:59;16.27;;;10.40;;
18748;SDS011;9503;53.560;10.246;2023-08-31T04:04:26;16.37;;;9.63;;
18748;SDS011;9503;53.560;10.246;2023-08-31T04:06:53;14.13;;;9.50;;
18748;SDS011;9503;53.560;10.246;2023-08-31T04:09:19;12.90;;;9.37;;
18748;SDS011;9503;53.560;10.246;2023-08-31T04:11:47;14.57;;;8.73;;
18748;SDS011;9503;53.560;10.246;2023-08-31T04:14:13;14.20;;;9.20;;
18748;SDS011;9503;53.560;10.246;2023-08-31T04:16:41;12.97;;;9.33;;
18748;SDS011;9503;53.560;10.246;2023-08-31T04:19:08;13.27;;;9.13;;
18748;SDS011;9503;53.560;10.246;2023-08-31T04:21:34;15.53;;;8.80;;
18748;SDS011;9503;53.560;10.246;2023-08-31T04:24:02;16.80;;;9.47;;
18748;SDS011;9503;53.560;10.246;2023-08-31T04:26:29;14.37;;;9.40;;
18748;SDS011;9503;53.560;10.246;2023-08-31T04:28:56;16.47;;;9.23;;
18748;SDS011;9503;53.560;10.246;2023-08-31T04:31:22;18.90;;;8.77;;
18748;SDS011;9503;53.560;10.246;2023-08-31T04:33:50;12.43;;;8.77;;
18748;SDS011;9503;53.560;10.246;2023-08-31T04:36:18;14.33;;;8.40;;
18748;SDS011;9503;53.560;10.246;2023-08-31T04:38:45;15.43;;;8.63;;
18748;SDS011;9503;53.560;10.246;2023-08-31T04:41:12;15.47;;;9.13;;
18748;SDS011;9503;53.560;10.246;2023-08-31T04:43:38;12.73;;;8.33;;
18748;SDS011;9503;53.560;10.246;2023-08-31T04:46:05;13.07;;;8.70;;
18748;SDS011;9503;53.560;10.246;2023-08-31T04:48:32;15.03;;;8.00;;
18748;SDS011;9503;53.560;10.246;2023-08-31T04:51:00;19.03;;;8.80;;
18748;SDS011;9503;53.560;10.246;2023-08-31T04:53:29;13.77;;;9.17;;
18748;SDS011;9503;53.560;10.246;2023-08-31T04:55:56;15.30;;;8.33;;
18748;SDS011;9503;53.560;10.246;2023-08-31T04:58:22;13.33;;;8.43;;
18748;SDS011;9503;53.560;10.246;2023-08-31T05:00:51;11.97;;;7.73;;
18748;SDS011;9503;53.560;10.246;2023-08-31T05:03:17;13.63;;;8.27;;
18748;SDS011;9503;53.560;10.246;2023-08-31T05:05:44;14.53;;;8.53;;
18748;SDS011;9503;53.560;10.246;2023-08-31T05:08:12;13.37;;;8.07;;
18748;SDS011;9503;53.560;10.246;2023-08-31T05:10:38;15.07;;;7.70;;
18748;SDS011;9503;53.560;10.246;2023-08-31T05:13:05;13.37;;;8.30;;
18748;SDS011;9503;53.560;10.246;2023-08-31T05:15:32;15.73;;;7.60;;
18748;SDS011;9503;53.560;10.246;2023-08-31T05:17:58;16.20;;;8.57;;
18748;SDS011;9503;53.560;10.246;2023-08-31T05:20:25;15.63;;;8.13;;
18748;SDS011;9503;53.560;10.246;2023-08-31T05:22:52;17.97;;;8.13;;
18748;SDS011;9503;53.560;10.246;2023-08-31T05:25:20;16.73;;;8.93;;
18748;SDS011;9503;53.560;10.246;2023-08-31T05:27:47;16.00;;;8.37;;
18748;SDS011;9503;53.560;10.246;2023-08-31T05:30:13;15.83;;;9.10;;
18748;SDS011;9503;53.560;10.246;2023-08-31T05:32:40;17.63;;;9.53;;
18748;SDS011;9503;53.560;10.246;2023-08-31T05:35:07;18.23;;;9.93;;
18748;SDS011;9503;53.560;10.246;2023-08-31T05:37:34;14.00;;;9.17;;
18748;SDS011;9503;53.560;10.246;2023-08-31T05:40:02;15.43;;;8.20;;
18748;SDS011;9503;53.560;10.246;2023-08-31T05:42:36;10.13;;;6.63;;
18748;SDS011;9503;53.560;10.246;2023-08-31T05:45:03;11.20;;;6.27;;
18748;SDS011;9503;53.560;10.246;2023-08-31T05:47:31;8.40;;;5.30;;
18748;SDS011;9503;53.560;10.246;2023-08-31T05:49:57;9.90;;;5.70;;
18748;SDS011;9503;53.560;10.246;2023-08-31T05:52:24;9.23;;;4.53;;
18748;SDS011;9503;53.560;10.246;2023-08-31T05:54:50;8.20;;;5.67;;
18748;SDS011;9503;53.560;10.246;2023-08-31T05:57:18;8.67;;;5.67;;
18748;SDS011;9503;53.560;10.246;2023-08-31T06:02:35;6.88;;;4.78;;
18748;SDS011;9503;53.560;10.246;2023-08-31T06:05:02;10.13;;;5.25;;
18748;SDS011;9503;53.560;10.246;2023-08-31T06:07:29;9.43;;;5.53;;
18748;SDS011;9503;53.560;10.246;2023-08-31T06:09:56;10.05;;;4.60;;
18748;SDS011;9503;53.560;10.246;2023-08-31T06:12:23;10.60;;;5.93;;
18748;SDS011;9503;53.560;10.246;2023-08-31T06:14:49;8.20;;;4.45;;
18748;SDS011;9503;53.560;10.246;2023-08-31T06:17:17;8.10;;;5.15;;
18748;SDS011;9503;53.560;10.246;2023-08-31T06:19:44;6.13;;;4.57;;
18748;SDS011;9503;53.560;10.246;2023-08-31T06:22:11;7.83;;;5.33;;
18748;SDS011;9503;53.560;10.246;2023-08-31T06:24:37;11.63;;;5.13;;
18748;SDS011;9503;53.560;10.246;2023-08-31T06:27:04;12.63;;;5.47;;
18748;SDS011;9503;53.560;10.246;2023-08-31T06:29:31;10.03;;;6.00;;
18748;SDS011;9503;53.560;10.246;2023-08-31T06:31:57;13.90;;;5.10;;
18748;SDS011;9503;53.560;10.246;2023-08-31T06:34:25;9.30;;;5.50;;
18748;SDS011;9503;53.560;10.246;2023-08-31T06:36:52;8.60;;;5.07;;
18748;SDS011;9503;53.560;10.246;2023-08-31T06:39:18;6.57;;;4.67;;
18748;SDS011;9503;53.560;10.246;2023-08-31T06:41:45;10.40;;;5.27;;
18748;SDS011;9503;53.560;10.246;2023-08-31T06:44:12;8.70;;;4.37;;
18748;SDS011;9503;53.560;10.246;2023-08-31T06:46:39;8.47;;;4.67;;
18748;SDS011;9503;53.560;10.246;2023-08-31T06:49:05;8.73;;;4.47;;
18748;SDS011;9503;53.560;10.246;2023-08-31T06:51:33;6.20;;;4.20;;
18748;SDS011;9503;53.560;10.246;2023-08-31T06:54:00;9.60;;;4.07;;
18748;SDS011;9503;53.560;10.246;2023-08-31T06:56:31;10.77;;;4.17;;
18748;SDS011;9503;53.560;10.246;2023-08-31T06:58:58;6.80;;;4.27;;
18748;SDS011;9503;53.560;10.246;2023-08-31T07:01:25;9.23;;;4.20;;
18748;SDS011;9503;53.560;10.246;2023-08-31T07:03:52;5.93;;;3.70;;
18748;SDS011;9503;53.560;10.246;2023-08-31T07:06:18;10.90;;;4.10;;
18748;SDS011;9503;53.560;10.246;2023-08-31T07:08:46;9.57;;;4.50;;
18748;SDS011;9503;53.560;10.246;2023-08-31T07:11:13;6.17;;;3.73;;
18748;SDS011;9503;53.560;10.246;2023-08-31T07:13:40;10.43;;;3.97;;
18748;SDS011;9503;53.560;10.246;2023-08-31T07:16:07;8.40;;;3.40;;
18748;SDS011;9503;53.560;10.246;2023-08-31T07:18:35;8.77;;;3.37;;
18748;SDS011;9503;53.560;10.246;2023-08-31T07:21:02;5.73;;;3.20;;
18748;SDS011;9503;53.560;10.246;2023-08-31T07:23:29;9.50;;;3.67;;
18748;SDS011;9503;53.560;10.246;2023-08-31T07:25:57;5.93;;;3.43;;
18748;SDS011;9503;53.560;10.246;2023-08-31T07:28:25;5.67;;;3.37;;
18748;SDS011;9503;53.560;10.246;2023-08-31T07:30:59;10.30;;;3.80;;
18748;SDS011;9503;53.560;10.246;2023-08-31T07:33:28;8.27;;;3.60;;
18748;SDS011;9503;53.560;10.246;2023-08-31T07:35:55;6.67;;;3.60;;
18748;SDS011;9503;53.560;10.246;2023-08-31T07:38:22;5.17;;;3.03;;
18748;SDS011;9503;53.560;10.246;2023-08-31T07:40:48;8.23;;;3.03;;
18748;SDS011;9503;53.560;10.246;2023-08-31T07:43:16;4.43;;;2.78;;
18748;SDS011;9503;53.560;10.246;2023-08-31T07:45:44;5.15;;;2.80;;
18748;SDS011;9503;53.560;10.246;2023-08-31T07:48:10;5.80;;;2.50;;
18748;SDS011;9503;53.560;10.246;2023-08-31T07:50:37;6.10;;;2.37;;
18748;SDS011;9503;53.560;10.246;2023-08-31T07:53:06;5.63;;;2.40;;
18748;SDS011;9503;53.560;10.246;2023-08-31T07:55:32;9.73;;;2.50;;
18748;SDS011;9503;53.560;10.246;2023-08-31T07:58:00;2.58;;;2.00;;
18748;SDS011;9503;53.560;10.246;2023-08-31T08:00:28;4.45;;;1.77;;
18748;SDS011;9503;53.560;10.246;2023-08-31T08:02:55;5.80;;;2.47;;
18748;SDS011;9503;53.560;10.246;2023-08-31T08:05:22;4.30;;;1.92;;
18748;SDS011;9503;53.560;10.246;2023-08-31T08:07:48;3.67;;;1.90;;
18748;SDS011;9503;53.560;10.246;2023-08-31T08:10:17;1.98;;;1.70;;
18748;SDS011;9503;53.560;10.246;2023-08-31T08:12:44;6.38;;;1.92;;
18748;SDS011;9503;53.560;10.246;2023-08-31T08:15:12;1.85;;;1.70;;
18748;SDS011;9503;53.560;10.246;2023-08-31T08:17:41;2.92;;;1.77;;
18748;SDS011;9503;53.560;10.246;2023-08-31T08:20:08;5.20;;;1.80;;
18748;SDS011;9503;53.560;10.246;2023-08-31T08:22:35;5.13;;;1.95;;
18748;SDS011;9503;53.560;10.246;2023-08-31T08:25:02;3.78;;;2.10;;
18748;SDS011;9503;53.560;10.246;2023-08-31T08:27:30;7.13;;;2.38;;
18748;SDS011;9503;53.560;10.246;2023-08-31T08:29:58;2.47;;;2.05;;
18748;SDS011;9503;53.560;10.246;2023-08-31T08:32:24;4.70;;;2.30;;
18748;SDS011;9503;53.560;10.246;2023-08-31T08:34:53;2.75;;;2.10;;
18748;SDS011;9503;53.560;10.246;2023-08-31T08:37:19;3.55;;;2.05;;
18748;SDS011;9503;53.560;10.246;2023-08-31T08:39:47;3.83;;;1.70;;
18748;SDS011;9503;53.560;10.246;2023-08-31T08:42:15;2.10;;;2.00;;
18748;SDS011;9503;53.560;10.246;2023-08-31T08:44:44;2.33;;;2.10;;
18748;SDS011;9503;53.560;10.246;2023-08-31T08:47:11;4.53;;;2.00;;
18748;SDS011;9503;53.560;10.246;2023-08-31T08:49:38;1.90;;;1.70;;
18748;SDS011;9503;53.560;10.246;2023-08-31T08:52:06;2.85;;;1.85;;
18748;SDS011;9503;53.560;10.246;2023-08-31T08:54:33;3.38;;;2.20;;
18748;SDS011;9503;53.560;10.246;2023-08-31T08:57:01;4.63;;;2.05;;
18748;SDS011;9503;53.560;10.246;2023-08-31T08:59:28;2.80;;;1.70;;
18748;SDS011;9503;53.560;10.246;2023-08-31T09:01:56;5.28;;;1.92;;
18748;SDS011;9503;53.560;10.246;2023-08-31T09:04:23;3.88;;;1.80;;
18748;SDS011;9503;53.560;10.246;2023-08-31T09:06:50;5.00;;;1.70;;
18748;SDS011;9503;53.560;10.246;2023-08-31T09:09:18;4.28;;;1.80;;
18748;SDS011;9503;53.560;10.246;2023-08-31T09:11:44;5.50;;;2.25;;
18748;SDS011;9503;53.560;10.246;2023-08-31T09:14:14;6.85;;;2.40;;
18748;SDS011;9503;53.560;10.246;2023-08-31T09:16:43;4.65;;;2.00;;
18748;SDS011;9503;53.560;10.246;2023-08-31T09:31:09;5.00;;;2.78;;
18748;SDS011;9503;53.560;10.246;2023-08-31T09:33:35;4.45;;;2.10;;
18748;SDS011;9503;53.560;10.246;2023-08-31T09:36:05;4.47;;;2.47;;
18748;SDS011;9503;53.560;10.246;2023-08-31T09:38:33;7.78;;;2.53;;
18748;SDS011;9503;53.560;10.246;2023-08-31T09:41:08;3.97;;;2.53;;
18748;SDS011;9503;53.560;10.246;2023-08-31T09:43:38;4.75;;;2.75;;
18748;SDS011;9503;53.560;10.246;2023-08-31T09:46:05;3.97;;;2.58;;
18748;SDS011;9503;53.560;10.246;2023-08-31T09:48:33;5.72;;;3.08;;
18748;SDS011;9503;53.560;10.246;2023-08-31T09:51:03;8.40;;;3.13;;
18748;SDS011;9503;53.560;10.246;2023-08-31T09:53:31;7.85;;;3.20;;
18748;SDS011;9503;53.560;10.246;2023-08-31T09:55:58;7.47;;;3.03;;
18748;SDS011;9503;53.560;10.246;2023-08-31T09:58:25;3.70;;;2.05;;
18748;SDS011;9503;53.560;10.246;2023-08-31T10:00:54;4.57;;;2.17;;
18748;SDS011;9503;53.560;10.246;2023-08-31T10:03:20;6.60;;;2.63;;
18748;SDS011;9503;53.560;10.246;2023-08-31T10:05:49;7.75;;;3.05;;
18748;SDS011;9503;53.560;10.246;2023-08-31T10:08:16;4.05;;;2.40;;
18748;SDS011;9503;53.560;10.246;2023-08-31T10:10:43;5.15;;;2.28;;
18748;SDS011;9503;53.560;10.246;2023-08-31T10:13:11;9.18;;;2.33;;
18748;SDS011;9503;53.560;10.246;2023-08-31T10:15:38;3.63;;;2.50;;
18748;SDS011;9503;53.560;10.246;2023-08-31T10:18:05;3.35;;;2.10;;
18748;SDS011;9503;53.560;10.246;2023-08-31T10:20:32;4.30;;;2.55;;
18748;SDS011;9503;53.560;10.246;2023-08-31T10:23:01;2.42;;;2.10;;
18748;SDS011;9503;53.560;10.246;2023-08-31T10:28:38;2.90;;;1.80;;
18748;SDS011;9503;53.560;10.246;2023-08-31T10:31:07;4.95;;;2.10;;
18748;SDS011;9503;53.560;10.246;2023-08-31T10:33:39;5.05;;;2.33;;
18748;SDS011;9503;53.560;10.246;2023-08-31T10:36:09;4.35;;;1.58;;
18748;SDS011;9503;53.560;10.246;2023-08-31T10:38:38;5.93;;;2.38;;
18748;SDS011;9503;53.560;10.246;2023-08-31T10:41:20;3.08;;;2.30;;
18748;SDS011;9503;53.560;10.246;2023-08-31T10:43:49;4.72;;;2.47;;
18748;SDS011;9503;53.560;10.246;2023-08-31T10:46:18;5.15;;;2.30;;
18748;SDS011;9503;53.560;10.246;2023-08-31T10:48:53;3.50;;;1.90;;
18748;SDS011;9503;53.560;10.246;2023-08-31T10:51:27;3.20;;;2.20;;
18748;SDS011;9503;53.560;10.246;2023-08-31T10:54:06;3.83;;;2.20;;
18748;SDS011;9503;53.560;10.246;2023-08-31T10:56:39;2.42;;;2.22;;
18748;SDS011;9503;53.560;10.246;2023-08-31T10:59:19;5.03;;;2.20;;
18748;SDS011;9503;53.560;10.246;2023-08-31T11:01:55;2.17;;;2.00;;
18748;SDS011;9503;53.560;10.246;2023-08-31T11:04:23;4.47;;;2.22;;
18748;SDS011;9503;53.560;10.246;2023-08-31T11:09:39;3.65;;;2.85;;
18748;SDS011;9503;53.560;10.246;2023-08-31T11:12:06;3.08;;;2.63;;
18748;SDS011;9503;53.560;10.246;2023-08-31T11:14:34;2.97;;;2.47;;
18748;SDS011;9503;53.560;10.246;2023-08-31T11:17:00;2.80;;;2.60;;
18748;SDS011;9503;53.560;10.246;2023-08-31T11:19:29;5.20;;;3.20;;
18748;SDS011;9503;53.560;10.246;2023-08-31T11:21:57;2.67;;;2.47;;
18748;SDS011;9503;53.560;10.246;2023-08-31T11:24:24;6.20;;;2.85;;
18748;SDS011;9503;53.560;10.246;2023-08-31T11:26:53;4.80;;;3.03;;
18748;SDS011;9503;53.560;10.246;2023-08-31T11:29:19;3.47;;;3.17;;
18748;SDS011;9503;53.560;10.246;2023-08-31T11:31:46;8.80;;;3.08;;
18748;SDS011;9503;53.560;10.246;2023-08-31T11:34:13;3.00;;;2.25;;
18748;SDS011;9503;53.560;10.246;2023-08-31T11:40:05;3.65;;;2.28;;
18748;SDS011;9503;53.560;10.246;2023-08-31T11:42:35;2.30;;;2.05;;
18748;SDS011;9503;53.560;10.246;2023-08-31T11:45:03;2.80;;;2.22;;
18748;SDS011;9503;53.560;10.246;2023-08-31T11:47:31;2.33;;;2.00;;
18748;SDS011;9503;53.560;10.246;2023-08-31T11:49:59;3.90;;;1.95;;
18748;SDS011;9503;53.560;10.246;2023-08-31T11:52:28;4.03;;;2.03;;
18748;SDS011;9503;53.560;10.246;2023-08-31T11:54:56;4.35;;;1.90;;
18748;SDS011;9503;53.560;10.246;2023-08-31T11:57:25;4.80;;;2.00;;
18748;SDS011;9503;53.560;10.246;2023-08-31T11:59:53;3.10;;;1.88;;
18748;SDS011;9503;53.560;10.246;2023-08-31T12:02:21;2.30;;;2.10;;
18748;SDS011;9503;53.560;10.246;2023-08-31T12:04:48;2.38;;;2.10;;
18748;SDS011;9503;53.560;10.246;2023-08-31T12:18:59;1.83;;;1.55;;
18748;SDS011;9503;53.560;10.246;2023-08-31T12:21:26;3.58;;;1.58;;
18748;SDS011;9503;53.560;10.246;2023-08-31T12:23:52;1.55;;;1.45;;
18748;SDS011;9503;53.560;10.246;2023-08-31T12:26:19;2.58;;;1.45;;
18748;SDS011;9503;53.560;10.246;2023-08-31T12:28:46;1.55;;;1.45;;
18748;SDS011;9503;53.560;10.246;2023-08-31T12:31:13;1.55;;;1.23;;
18748;SDS011;9503;53.560;10.246;2023-08-31T12:33:39;2.80;;;1.30;;
18748;SDS011;9503;53.560;10.246;2023-08-31T12:36:08;4.95;;;1.60;;
18748;SDS011;9503;53.560;10.246;2023-08-31T12:38:34;2.13;;;1.63;;
18748;SDS011;9503;53.560;10.246;2023-08-31T12:41:01;1.52;;;1.25;;
18748;SDS011;9503;53.560;10.246;2023-08-31T12:43:28;2.42;;;1.42;;
18748;SDS011;9503;53.560;10.246;2023-08-31T12:45:55;2.47;;;1.50;;
18748;SDS011;9503;53.560;10.246;2023-08-31T12:48:22;2.78;;;1.30;;
18748;SDS011;9503;53.560;10.246;2023-08-31T12:50:49;1.48;;;1.30;;
18748;SDS011;9503;53.560;10.246;2023-08-31T12:53:17;1.20;;;1.10;;
18748;SDS011;9503;53.560;10.246;2023-08-31T12:55:43;2.13;;;1.17;;
18748;SDS011;9503;53.560;10.246;2023-08-31T12:58:10;2.53;;;1.40;;
18748;SDS011;9503;53.560;10.246;2023-08-31T13:00:37;1.58;;;1.30;;
18748;SDS011;9503;53.560;10.246;2023-08-31T13:03:04;3.15;;;1.35;;
18748;SDS011;9503;53.560;10.246;2023-08-31T13:05:32;2.42;;;1.10;;
18748;SDS011;9503;53.560;10.246;2023-08-31T13:07:58;8.30;;;1.00;;
18748;SDS011;9503;53.560;10.246;2023-08-31T13:10:31;5.75;;;1.27;;
18748;SDS011;9503;53.560;10.246;2023-08-31T13:12:58;4.75;;;1.27;;
18748;SDS011;9503;53.560;10.246;2023-08-31T13:15:25;2.30;;;1.30;;
18748;SDS011;9503;53.560;10.246;2023-08-31T13:17:52;6.80;;;1.33;;
18748;SDS011;9503;53.560;10.246;2023-08-31T13:20:19;2.38;;;1.13;;
18748;SDS011;9503;53.560;10.246;2023-08-31T13:22:45;4.10;;;1.20;;
18748;SDS011;9503;53.560;10.246;2023-08-31T13:25:12;1.40;;;1.15;;
18748;SDS011;9503;53.560;10.246;2023-08-31T13:27:40;1.40;;;1.30;;
18748;SDS011;9503;53.560;10.246;2023-08-31T13:30:07;1.33;;;0.90;;
18748;SDS011;9503;53.560;10.246;2023-08-31T13:32:34;1.48;;;1.15;;
18748;SDS011;9503;53.560;10.246;2023-08-31T13:35:01;2.33;;;1.23;;
18748;SDS011;9503;53.560;10.246;2023-08-31T13:37:32;2.38;;;1.23;;
18748;SDS011;9503;53.560;10.246;2023-08-31T13:39:59;2.55;;;1.23;;
18748;SDS011;9503;53.560;10.246;2023-08-31T13:42:32;2.20;;;1.27;;
18748;SDS011;9503;53.560;10.246;2023-08-31T13:45:01;1.20;;;1.10;;
18748;SDS011;9503;53.560;10.246;2023-08-31T13:47:29;2.63;;;1.38;;
18748;SDS011;9503;53.560;10.246;2023-08-31T13:49:56;1.58;;;1.10;;
18748;SDS011;9503;53.560;10.246;2023-08-31T13:52:23;1.58;;;1.10;;
18748;SDS011;9503;53.560;10.246;2023-08-31T13:54:50;2.28;;;1.40;;
18748;SDS011;9503;53.560;10.246;2023-08-31T13:57:16;2.45;;;1.27;;
18748;SDS011;9503;53.560;10.246;2023-08-31T13:59:43;3.22;;;1.33;;
18748;SDS011;9503;53.560;10.246;2023-08-31T14:02:11;2.60;;;1.10;;
18748;SDS011;9503;53.560;10.246;2023-08-31T14:04:38;1.65;;;1.13;;
18748;SDS011;9503;53.560;10.246;2023-08-31T14:07:05;3.53;;;1.30;;
18748;SDS011;9503;53.560;10.246;2023-08-31T14:09:33;1.23;;;1.13;;
18748;SDS011;9503;53.560;10.246;2023-08-31T14:11:59;1.67;;;1.00;;
18748;SDS011;9503;53.560;10.246;2023-08-31T14:14:27;1.30;;;1.20;;
18748;SDS011;9503;53.560;10.246;2023-08-31T14:16:54;2.13;;;1.20;;
18748;SDS011;9503;53.560;10.246;2023-08-31T14:19:22;3.08;;;1.30;;
18748;SDS011;9503;53.560;10.246;2023-08-31T14:21:48;1.25;;;1.13;;
18748;SDS011;9503;53.560;10.246;2023-08-31T14:24:15;2.75;;;1.20;;
18748;SDS011;9503;53.560;10.246;2023-08-31T14:26:43;1.17;;;1.08;;
18748;SDS011;9503;53.560;10.246;2023-08-31T14:29:10;3.03;;;1.10;;
18748;SDS011;9503;53.560;10.246;2023-08-31T14:31:37;3.80;;;1.60;;
18748;SDS011;9503;53.560;10.246;2023-08-31T14:34:04;0.93;;;0.93;;
18748;SDS011;9503;53.560;10.246;2023-08-31T14:36:32;1.60;;;1.00;;
18748;SDS011;9503;53.560;10.246;2023-08-31T14:38:59;1.55;;;1.20;;
18748;SDS011;9503;53.560;10.246;2023-08-31T14:41:25;1.70;;;1.00;;
18748;SDS011;9503;53.560;10.246;2023-08-31T14:43:52;1.58;;;1.00;;
18748;SDS011;9503;53.560;10.246;2023-08-31T14:46:19;1.38;;;0.98;;
18748;SDS011;9503;53.560;10.246;2023-08-31T14:48:47;5.32;;;1.38;;
18748;SDS011;9503;53.560;10.246;2023-08-31T14:51:13;1.30;;;1.10;;
18748;SDS011;9503;53.560;10.246;2023-08-31T14:53:41;1.40;;;1.30;;
18748;SDS011;9503;53.560;10.246;2023-08-31T14:56:08;1.88;;;1.17;;
18748;SDS011;9503;53.560;10.246;2023-08-31T14:58:35;2.80;;;1.10;;
18748;SDS011;9503;53.560;10.246;2023-08-31T15:01:02;1.70;;;1.00;;
18748;SDS011;9503;53.560;10.246;2023-08-31T15:03:28;2.08;;;1.05;;
18748;SDS011;9503;53.560;10.246;2023-08-31T15:05:55;1.63;;;1.17;;
18748;SDS011;9503;53.560;10.246;2023-08-31T15:08:22;1.63;;;1.00;;
18748;SDS011;9503;53.560;10.246;2023-08-31T15:11:02;3.33;;;1.10;;
18748;SDS011;9503;53.560;10.246;2023-08-31T15:13:29;2.58;;;1.13;;
18748;SDS011;9503;53.560;10.246;2023-08-31T15:15:56;1.33;;;0.95;;
18748;SDS011;9503;53.560;10.246;2023-08-31T15:18:24;1.20;;;1.20;;